createdAt,value
2022-10-31T00:01:15.282Z,11.40
2022-10-31T00:03:42.056Z,11.30
2022-10-31T00:06:08.780Z,11.30
2022-10-31T00:08:35.661Z,11.30
2022-10-31T00:11:02.516Z,11.30
2022-10-31T00:13:29.209Z,11.40
2022-10-31T00:15:55.990Z,11.40
2022-10-31T00:18:22.676Z,11.50
2022-10-31T00:20:49.314Z,11.40
2022-10-31T00:23:15.974Z,11.30
2022-10-31T00:25:42.619Z,11.30
2022-10-31T00:28:12.457Z,11.20
2022-10-31T00:30:39.155Z,11.00
2022-10-31T00:33:06.305Z,10.90
2022-10-31T00:35:33.268Z,10.70
2022-10-31T00:38:00.224Z,10.60
2022-10-31T00:40:27.151Z,10.60
2022-10-31T00:42:53.942Z,10.70
2022-10-31T00:45:20.612Z,10.70
2022-10-31T00:47:47.270Z,10.60
2022-10-31T00:50:13.999Z,10.50
2022-10-31T00:52:40.632Z,10.40
2022-10-31T00:55:07.692Z,10.30
2022-10-31T00:57:34.326Z,10.40
2022-10-31T01:00:00.948Z,10.50
2022-10-31T01:02:27.748Z,10.60
2022-10-31T01:04:54.506Z,10.60
2022-10-31T01:07:21.276Z,10.60
2022-10-31T01:09:47.926Z,10.60
2022-10-31T01:12:14.572Z,10.60
2022-10-31T01:14:46.898Z,10.60
2022-10-31T01:17:14.547Z,10.50
2022-10-31T01:19:41.248Z,10.50
2022-10-31T01:22:07.900Z,10.30
2022-10-31T01:24:34.739Z,10.20
2022-10-31T01:27:01.427Z,10.20
2022-10-31T01:29:28.161Z,10.10
2022-10-31T01:31:54.815Z,10.10
2022-10-31T01:34:21.628Z,10.00
2022-10-31T01:36:52.383Z,10.00
2022-10-31T01:39:22.877Z,10.00
2022-10-31T01:41:52.015Z,10.00
2022-10-31T01:44:18.591Z,10.10
2022-10-31T01:46:56.118Z,10.20
2022-10-31T01:49:37.799Z,10.30
2022-10-31T01:52:14.210Z,10.30
2022-10-31T01:54:44.142Z,10.30
2022-10-31T01:57:13.632Z,10.50
2022-10-31T01:59:46.066Z,10.50
2022-10-31T02:02:13.665Z,10.40
2022-10-31T02:04:41.054Z,10.30
2022-10-31T02:07:19.443Z,10.30
2022-10-31T02:09:48.451Z,10.30
2022-10-31T02:12:16.244Z,10.10
2022-10-31T02:14:43.461Z,10.00
2022-10-31T02:17:10.113Z,10.00
2022-10-31T02:19:55.727Z,9.90
2022-10-31T02:22:49.982Z,9.90
2022-10-31T02:25:35.467Z,9.80
2022-10-31T02:28:33.271Z,9.80
2022-10-31T02:31:43.459Z,9.90
2022-10-31T02:34:13.075Z,9.90
2022-10-31T02:37:02.743Z,10.00
2022-10-31T02:39:47.704Z,9.80
2022-10-31T02:42:20.932Z,9.80
2022-10-31T02:44:58.252Z,9.70
2022-10-31T02:47:29.260Z,9.70
2022-10-31T02:50:21.824Z,9.70
2022-10-31T02:52:52.910Z,9.70
2022-10-31T02:55:25.790Z,9.60
2022-10-31T02:57:58.635Z,9.80
2022-10-31T03:00:25.722Z,9.80
2022-10-31T03:03:14.138Z,9.80
2022-10-31T03:05:47.668Z,9.80
2022-10-31T03:08:48.363Z,9.80
2022-10-31T03:11:16.133Z,9.70
2022-10-31T03:13:48.716Z,9.70
2022-10-31T03:16:27.302Z,9.70
2022-10-31T03:19:09.863Z,9.70
2022-10-31T03:21:46.353Z,9.80
2022-10-31T03:24:15.622Z,9.90
2022-10-31T03:26:51.027Z,9.90
2022-10-31T03:29:22.683Z,9.90
2022-10-31T03:31:56.446Z,9.80
2022-10-31T03:34:23.122Z,9.70
2022-10-31T03:36:56.844Z,9.80
2022-10-31T03:39:24.458Z,9.90
2022-10-31T03:42:01.321Z,9.80
2022-10-31T03:44:30.386Z,9.70
2022-10-31T03:46:57.933Z,9.80
2022-10-31T03:49:24.822Z,9.80
2022-10-31T03:52:12.675Z,9.80
2022-10-31T03:54:46.234Z,9.90
2022-10-31T03:57:39.675Z,10.00
2022-10-31T04:00:13.213Z,10.10
2022-10-31T04:02:43.867Z,10.00
2022-10-31T04:05:13.249Z,10.00
2022-10-31T04:07:44.636Z,10.00
2022-10-31T04:10:14.247Z,9.90
2022-10-31T04:12:42.926Z,9.90
2022-10-31T04:15:11.373Z,9.80
2022-10-31T04:17:41.157Z,9.60
2022-10-31T04:20:08.484Z,9.40
2022-10-31T04:22:35.121Z,9.20
2022-10-31T04:25:01.796Z,9.10
2022-10-31T04:27:28.481Z,9.10
2022-10-31T04:29:55.157Z,9.30
2022-10-31T04:32:21.781Z,9.40
2022-10-31T04:34:48.438Z,9.40
2022-10-31T04:37:15.143Z,9.60
2022-10-31T04:39:41.816Z,9.50
2022-10-31T04:42:08.468Z,9.40
2022-10-31T04:44:35.082Z,9.40
2022-10-31T04:47:01.761Z,9.20
2022-10-31T04:49:28.385Z,9.10
2022-10-31T04:51:55.019Z,9.10
2022-10-31T04:54:21.666Z,9.10
2022-10-31T04:56:48.315Z,9.00
2022-10-31T04:59:14.977Z,9.10
2022-10-31T05:01:41.752Z,9.00
2022-10-31T05:04:08.506Z,9.10
2022-10-31T05:06:35.183Z,9.10
2022-10-31T05:09:01.997Z,9.00
2022-10-31T05:11:28.647Z,9.10
2022-10-31T05:13:55.314Z,9.10
2022-10-31T05:16:21.932Z,9.00
2022-10-31T05:18:48.572Z,8.80
2022-10-31T05:21:15.331Z,8.90
2022-10-31T05:23:45.911Z,8.90
2022-10-31T05:26:15.200Z,8.80
2022-10-31T05:28:41.872Z,8.70
2022-10-31T05:31:08.535Z,8.70
2022-10-31T05:33:35.202Z,8.70
2022-10-31T05:36:01.863Z,8.80
2022-10-31T05:38:28.495Z,8.90
2022-10-31T05:40:58.570Z,8.90
2022-10-31T05:43:25.210Z,8.90
2022-10-31T05:45:56.624Z,8.90
2022-10-31T05:48:23.696Z,8.80
2022-10-31T05:50:50.762Z,8.90
2022-10-31T05:53:17.433Z,8.90
2022-10-31T05:55:44.706Z,8.80
2022-10-31T05:58:11.754Z,8.70
2022-10-31T06:00:38.524Z,8.60
2022-10-31T06:05:39.228Z,8.70
2022-10-31T06:08:06.169Z,8.70
2022-10-31T06:10:32.902Z,8.50
2022-10-31T06:12:59.535Z,8.40
2022-10-31T06:15:26.179Z,8.40
2022-10-31T06:18:01.710Z,8.30
2022-10-31T06:20:28.818Z,8.40
2022-10-31T06:22:55.498Z,8.40
2022-10-31T06:25:22.173Z,8.50
2022-10-31T06:27:48.859Z,8.60
2022-10-31T06:30:15.800Z,8.70
2022-10-31T06:32:42.430Z,8.80
2022-10-31T06:35:09.260Z,8.80
2022-10-31T06:37:36.132Z,8.90
2022-10-31T06:40:02.852Z,8.90
2022-10-31T06:42:29.535Z,9.00
2022-10-31T06:44:56.405Z,9.10
2022-10-31T06:47:23.223Z,9.10
2022-10-31T06:49:49.833Z,9.20
2022-10-31T06:52:16.625Z,9.30
2022-10-31T06:54:43.329Z,9.50
2022-10-31T06:57:10.039Z,9.70
2022-10-31T06:59:36.683Z,9.90
2022-10-31T07:02:03.525Z,10.20
2022-10-31T07:04:30.334Z,10.40
2022-10-31T07:06:57.020Z,10.70
2022-10-31T07:09:23.677Z,11.00
2022-10-31T07:11:53.282Z,11.30
2022-10-31T07:14:20.387Z,11.50
2022-10-31T07:16:51.631Z,11.80
2022-10-31T07:19:18.637Z,12.10
2022-10-31T07:21:45.332Z,12.40
2022-10-31T07:24:11.949Z,12.60
2022-10-31T07:26:38.621Z,12.90
2022-10-31T07:29:05.439Z,13.00
2022-10-31T07:31:32.133Z,12.90
2022-10-31T07:33:58.988Z,12.90
2022-10-31T07:36:25.657Z,12.60
2022-10-31T07:38:52.378Z,12.40
2022-10-31T07:41:19.016Z,12.30
2022-10-31T07:43:46.461Z,12.30
2022-10-31T07:46:13.207Z,12.20
2022-10-31T07:48:39.890Z,12.30
2022-10-31T07:51:07.957Z,12.60
2022-10-31T07:53:34.648Z,12.90
2022-10-31T07:56:01.390Z,13.30
2022-10-31T07:58:28.069Z,13.80
2022-10-31T08:00:54.814Z,14.30
2022-10-31T08:03:21.721Z,14.60
2022-10-31T08:05:48.628Z,14.90
2022-10-31T08:08:16.133Z,15.00
2022-10-31T08:10:43.151Z,14.90
2022-10-31T08:13:12.111Z,15.30
2022-10-31T08:15:40.950Z,15.50
2022-10-31T08:18:12.151Z,15.80
2022-10-31T08:20:38.778Z,16.00
2022-10-31T08:23:06.128Z,16.20
2022-10-31T08:25:38.369Z,16.40
2022-10-31T08:28:06.945Z,16.50
2022-10-31T08:30:36.186Z,16.60
2022-10-31T08:33:04.899Z,16.80
2022-10-31T08:35:32.784Z,16.90
2022-10-31T08:38:00.420Z,16.90
2022-10-31T08:40:29.321Z,17.00
2022-10-31T08:43:00.869Z,17.10
2022-10-31T08:45:28.101Z,17.10
2022-10-31T08:47:59.460Z,17.10
2022-10-31T08:50:27.094Z,16.90
2022-10-31T08:53:05.168Z,17.10
2022-10-31T08:55:35.280Z,17.20
2022-10-31T08:58:02.829Z,17.30
2022-10-31T09:00:29.807Z,17.30
2022-10-31T09:03:02.420Z,17.30
2022-10-31T09:05:29.896Z,17.30
2022-10-31T09:07:58.698Z,17.50
2022-10-31T09:10:26.799Z,17.40
2022-10-31T09:12:58.351Z,17.20
2022-10-31T09:15:26.290Z,16.90
2022-10-31T09:17:53.075Z,17.00
2022-10-31T09:20:20.509Z,17.10
2022-10-31T09:22:47.685Z,17.20
2022-10-31T09:25:14.784Z,17.20
2022-10-31T09:27:41.431Z,17.20
2022-10-31T09:30:08.480Z,17.30
2022-10-31T09:32:35.155Z,17.40
2022-10-31T09:35:01.858Z,17.60
2022-10-31T09:37:28.701Z,17.70
2022-10-31T09:39:55.353Z,17.70
2022-10-31T09:42:50.523Z,17.70
2022-10-31T09:45:38.763Z,17.80
2022-10-31T09:48:21.500Z,17.80
2022-10-31T09:50:53.453Z,17.70
2022-10-31T09:53:38.555Z,17.70
2022-10-31T09:56:12.755Z,17.70
2022-10-31T09:58:46.293Z,18.00
2022-10-31T10:01:48.759Z,18.10
2022-10-31T10:04:46.198Z,18.00
2022-10-31T10:07:42.611Z,17.60
2022-10-31T10:10:30.676Z,17.50
2022-10-31T10:13:09.429Z,17.60
2022-10-31T10:15:47.104Z,17.90
2022-10-31T10:18:45.646Z,18.10
2022-10-31T10:21:15.497Z,18.30
2022-10-31T10:23:57.555Z,18.40
2022-10-31T10:26:39.333Z,18.50
2022-10-31T10:29:42.902Z,18.40
2022-10-31T10:32:18.887Z,18.40
2022-10-31T10:34:51.504Z,18.40
2022-10-31T10:37:32.638Z,18.50
2022-10-31T10:40:29.373Z,18.60
2022-10-31T10:43:19.839Z,18.70
2022-10-31T10:46:17.240Z,18.90
2022-10-31T10:48:56.141Z,19.00
2022-10-31T10:55:07.507Z,19.30
2022-10-31T10:57:42.658Z,19.40
2022-10-31T11:00:22.085Z,19.30
2022-10-31T11:02:49.558Z,19.40
2022-10-31T11:05:21.491Z,19.20
2022-10-31T11:07:48.153Z,19.20
2022-10-31T11:10:16.457Z,19.20
2022-10-31T11:12:45.937Z,19.20
2022-10-31T11:15:23.182Z,19.20
2022-10-31T11:17:52.927Z,19.20
2022-10-31T11:20:19.621Z,19.10
2022-10-31T11:22:48.658Z,19.10
2022-10-31T11:25:25.264Z,19.10
2022-10-31T11:28:05.204Z,19.10
2022-10-31T11:30:50.976Z,19.10
2022-10-31T11:33:31.715Z,19.20
2022-10-31T11:35:59.163Z,19.10
2022-10-31T11:38:33.677Z,19.10
2022-10-31T11:41:25.263Z,19.20
2022-10-31T11:43:58.238Z,19.40
2022-10-31T11:46:47.624Z,19.60
2022-10-31T11:49:37.210Z,19.50
2022-10-31T11:52:22.983Z,19.50
2022-10-31T11:55:03.183Z,19.60
2022-10-31T11:58:05.761Z,19.70
2022-10-31T12:00:49.194Z,19.60
2022-10-31T12:03:25.174Z,19.30
2022-10-31T12:06:28.682Z,19.50
2022-10-31T12:08:55.445Z,19.70
2022-10-31T12:11:36.037Z,19.60
2022-10-31T12:14:24.912Z,19.70
2022-10-31T12:17:16.978Z,20.10
2022-10-31T12:20:06.741Z,20.60
2022-10-31T12:22:59.753Z,20.90
2022-10-31T12:25:32.464Z,20.80
2022-10-31T12:28:06.067Z,21.10
2022-10-31T12:31:11.766Z,20.90
2022-10-31T12:34:06.492Z,21.10
2022-10-31T12:36:51.974Z,20.90
2022-10-31T12:39:18.592Z,20.50
2022-10-31T12:42:09.973Z,20.20
2022-10-31T12:44:53.105Z,20.00
2022-10-31T12:47:38.393Z,20.00
2022-10-31T12:50:26.278Z,20.00
2022-10-31T12:52:58.678Z,19.90
2022-10-31T12:55:46.928Z,19.80
2022-10-31T12:58:30.649Z,19.70
2022-10-31T13:01:24.614Z,19.50
2022-10-31T13:04:00.154Z,19.40
2022-10-31T13:06:44.921Z,19.30
2022-10-31T13:09:17.931Z,19.30
2022-10-31T13:11:57.597Z,19.30
2022-10-31T13:14:47.755Z,19.40
2022-10-31T13:17:23.828Z,19.50
2022-10-31T13:19:52.719Z,19.60
2022-10-31T13:22:23.770Z,19.60
2022-10-31T13:25:27.677Z,19.70
2022-10-31T13:28:05.987Z,19.90
2022-10-31T13:30:37.882Z,19.90
2022-10-31T13:33:10.490Z,19.90
2022-10-31T13:36:07.784Z,19.90
2022-10-31T13:38:52.800Z,19.80
2022-10-31T13:41:28.381Z,19.70
2022-10-31T13:44:21.143Z,19.60
2022-10-31T13:46:48.338Z,19.50
2022-10-31T13:49:30.505Z,19.50
2022-10-31T13:52:12.255Z,19.50
2022-10-31T13:54:41.529Z,19.50
2022-10-31T13:57:23.164Z,19.40
2022-10-31T13:59:56.925Z,19.40
2022-10-31T14:02:32.960Z,19.30
2022-10-31T14:05:19.447Z,19.30
2022-10-31T14:07:47.645Z,19.10
2022-10-31T14:10:29.750Z,19.00
2022-10-31T14:13:08.365Z,18.90
2022-10-31T14:15:38.978Z,18.80
2022-10-31T14:18:08.346Z,18.70
2022-10-31T14:20:39.599Z,18.70
2022-10-31T14:23:32.019Z,18.60
2022-10-31T14:26:27.172Z,18.40
2022-10-31T14:29:03.101Z,18.20
2022-10-31T14:31:42.219Z,18.20
2022-10-31T14:34:32.072Z,18.30
2022-10-31T14:37:13.856Z,18.50
2022-10-31T14:39:53.302Z,18.80
2022-10-31T14:42:43.021Z,19.00
2022-10-31T14:45:25.154Z,19.10
2022-10-31T14:48:09.609Z,19.10
2022-10-31T14:50:39.182Z,19.20
2022-10-31T14:53:09.486Z,19.00
2022-10-31T14:55:48.974Z,18.80
2022-10-31T15:01:07.182Z,18.30
2022-10-31T15:04:03.603Z,18.40
2022-10-31T15:06:45.139Z,18.40
2022-10-31T15:09:28.069Z,18.10
2022-10-31T15:11:55.005Z,18.10
2022-10-31T15:14:31.620Z,18.00
2022-10-31T15:17:01.990Z,17.90
2022-10-31T15:19:31.973Z,17.90
2022-10-31T15:21:59.387Z,17.90
2022-10-31T15:24:33.544Z,17.90
2022-10-31T15:27:04.884Z,17.90
2022-10-31T15:29:32.400Z,17.70
2022-10-31T15:32:02.094Z,17.60
2022-10-31T15:34:37.754Z,17.60
2022-10-31T15:37:04.559Z,17.50
2022-10-31T15:39:31.243Z,17.50
2022-10-31T15:41:59.841Z,17.40
2022-10-31T15:44:32.995Z,17.30
2022-10-31T15:47:02.795Z,17.20
2022-10-31T15:49:43.148Z,17.00
2022-10-31T15:52:19.036Z,16.90
2022-10-31T15:54:49.060Z,16.90
2022-10-31T15:57:16.270Z,16.80
2022-10-31T15:59:52.515Z,16.80
2022-10-31T16:02:23.184Z,16.60
2022-10-31T16:04:54.060Z,16.40
2022-10-31T16:07:23.537Z,16.30
2022-10-31T16:10:00.346Z,16.30
2022-10-31T16:12:36.291Z,16.20
2022-10-31T16:15:04.980Z,16.10
2022-10-31T16:17:32.718Z,16.10
2022-10-31T16:20:05.585Z,16.00
2022-10-31T16:22:38.375Z,15.90
2022-10-31T16:25:18.881Z,15.80
2022-10-31T16:27:54.645Z,15.80
2022-10-31T16:30:44.050Z,15.70
2022-10-31T16:33:37.246Z,15.70
2022-10-31T16:36:36.490Z,15.60
2022-10-31T16:39:04.440Z,15.50
2022-10-31T16:41:39.111Z,15.50
2022-10-31T16:44:15.095Z,15.40
2022-10-31T16:46:41.853Z,15.30
2022-10-31T16:49:10.857Z,15.30
2022-10-31T16:51:37.863Z,15.30
2022-10-31T16:54:04.779Z,15.20
2022-10-31T16:56:34.198Z,15.10
2022-10-31T16:59:04.721Z,15.10
2022-10-31T17:01:32.308Z,15.00
2022-10-31T17:03:59.177Z,14.90
2022-10-31T17:06:28.347Z,14.90
2022-10-31T17:08:55.568Z,14.90
2022-10-31T17:11:25.857Z,14.80
2022-10-31T17:13:53.638Z,14.70
2022-10-31T17:16:20.349Z,14.70
2022-10-31T17:18:47.578Z,14.70
2022-10-31T17:21:23.570Z,14.50
2022-10-31T17:23:51.077Z,14.40
2022-10-31T17:26:18.699Z,14.40
2022-10-31T17:28:45.676Z,14.30
2022-10-31T17:31:29.823Z,14.30
2022-10-31T17:34:02.027Z,14.30
2022-10-31T17:36:30.714Z,14.30
2022-10-31T17:38:57.540Z,14.20
2022-10-31T17:41:24.213Z,14.10
2022-10-31T17:43:59.023Z,14.00
2022-10-31T17:46:26.219Z,14.00
2022-10-31T17:48:52.989Z,14.00
2022-10-31T17:51:19.707Z,13.90
2022-10-31T17:53:46.408Z,13.80
2022-10-31T17:56:13.152Z,13.80
2022-10-31T17:58:39.827Z,13.70
2022-10-31T18:01:12.423Z,13.70
2022-10-31T18:03:39.587Z,13.60
2022-10-31T18:06:06.834Z,13.50
2022-10-31T18:08:35.799Z,13.50
2022-10-31T18:11:21.865Z,13.50
2022-10-31T18:13:53.970Z,13.30
2022-10-31T18:16:20.747Z,13.20
2022-10-31T18:19:01.835Z,13.30
2022-10-31T18:21:29.576Z,13.30
2022-10-31T18:23:58.248Z,13.30
2022-10-31T18:26:26.434Z,13.20
2022-10-31T18:28:53.509Z,13.10
2022-10-31T18:31:20.661Z,13.10
2022-10-31T18:33:47.408Z,13.00
2022-10-31T18:36:14.326Z,13.00
2022-10-31T18:38:44.828Z,13.00
2022-10-31T18:41:12.356Z,13.00
2022-10-31T18:43:39.510Z,13.00
2022-10-31T18:46:14.532Z,13.00
2022-10-31T18:48:42.653Z,12.90
2022-10-31T18:51:11.198Z,12.90
2022-10-31T18:53:37.997Z,12.90
2022-10-31T18:56:09.550Z,12.90
2022-10-31T18:58:36.648Z,12.80
2022-10-31T19:01:11.265Z,12.80
2022-10-31T19:03:38.953Z,12.70
2022-10-31T19:06:06.869Z,12.70
2022-10-31T19:08:34.202Z,12.60
2022-10-31T19:11:10.678Z,12.50
2022-10-31T19:13:38.558Z,12.50
2022-10-31T19:16:10.927Z,12.50
2022-10-31T19:18:38.674Z,12.40
2022-10-31T19:21:13.764Z,12.40
2022-10-31T19:23:40.423Z,12.40
2022-10-31T19:26:07.273Z,12.40
2022-10-31T19:28:36.417Z,12.40
2022-10-31T19:31:03.576Z,12.40
2022-10-31T19:33:34.970Z,12.40
2022-10-31T19:36:09.626Z,12.40
2022-10-31T19:38:42.436Z,12.40
2022-10-31T19:41:12.406Z,12.30
2022-10-31T19:43:39.399Z,12.30
2022-10-31T19:46:09.067Z,12.20
2022-10-31T19:48:38.893Z,12.10
2022-10-31T19:51:08.745Z,12.10
2022-10-31T19:53:35.660Z,12.10
2022-10-31T19:56:03.058Z,12.10
2022-10-31T19:58:32.051Z,12.10
2022-10-31T20:03:30.258Z,12.00
2022-10-31T20:05:56.905Z,12.00
2022-10-31T20:08:23.517Z,11.90
2022-10-31T20:10:55.535Z,11.90
2022-10-31T20:13:22.887Z,11.90
2022-10-31T20:15:50.127Z,11.90
2022-10-31T20:18:17.269Z,11.80
2022-10-31T20:20:44.653Z,11.80
2022-10-31T20:23:11.346Z,11.80
2022-10-31T20:25:37.997Z,11.80
2022-10-31T20:28:04.804Z,11.60
2022-10-31T20:30:32.008Z,11.60
2022-10-31T20:32:58.709Z,11.50
2022-10-31T20:35:25.350Z,11.50
2022-10-31T20:37:52.097Z,11.30
2022-10-31T20:40:18.870Z,11.30
2022-10-31T20:42:45.500Z,11.30
2022-10-31T20:45:12.195Z,11.30
2022-10-31T20:47:38.898Z,11.30
2022-10-31T20:50:06.086Z,11.30
2022-10-31T20:52:32.807Z,11.30
2022-10-31T20:54:59.442Z,11.20
2022-10-31T20:57:26.138Z,11.10
2022-10-31T20:59:53.936Z,11.00
2022-10-31T21:02:20.722Z,10.80
2022-10-31T21:04:47.494Z,10.70
2022-10-31T21:07:14.139Z,10.60
2022-10-31T21:09:40.808Z,10.60
2022-10-31T21:12:07.553Z,10.60
2022-10-31T21:14:34.191Z,10.60
2022-10-31T21:17:00.854Z,10.50
2022-10-31T21:19:27.527Z,10.40
2022-10-31T21:21:54.291Z,10.40
2022-10-31T21:24:21.770Z,10.40
2022-10-31T21:26:51.809Z,10.40
2022-10-31T21:29:19.581Z,10.50
2022-10-31T21:31:47.361Z,10.50
2022-10-31T21:34:14.401Z,10.50
2022-10-31T21:36:41.036Z,10.60
2022-10-31T21:39:09.134Z,10.50
2022-10-31T21:41:36.203Z,10.50
2022-10-31T21:44:03.043Z,10.60
2022-10-31T21:46:31.701Z,10.60
2022-10-31T21:48:59.570Z,10.50
2022-10-31T21:51:29.032Z,10.40
2022-10-31T21:54:18.962Z,10.50
2022-10-31T21:56:45.902Z,10.30
2022-10-31T21:59:13.149Z,10.20
2022-10-31T22:01:40.291Z,10.10
2022-10-31T22:04:07.110Z,10.10
2022-10-31T22:06:35.091Z,10.10
2022-10-31T22:09:04.559Z,10.10
2022-10-31T22:11:31.229Z,10.20
2022-10-31T22:14:01.786Z,10.20
2022-10-31T22:16:29.862Z,10.20
2022-10-31T22:18:59.747Z,10.30
2022-10-31T22:21:28.141Z,10.30
2022-10-31T22:23:59.286Z,10.30
2022-10-31T22:26:28.269Z,10.20
2022-10-31T22:28:59.274Z,10.30
2022-10-31T22:31:26.977Z,10.20
2022-10-31T22:33:54.505Z,10.20
2022-10-31T22:36:24.070Z,10.20
2022-10-31T22:38:51.434Z,10.20
2022-10-31T22:41:23.613Z,10.20
2022-10-31T22:43:50.822Z,10.20
2022-10-31T22:46:23.834Z,10.20
2022-10-31T22:48:53.274Z,10.20
2022-10-31T22:51:25.817Z,10.30
2022-10-31T22:53:53.077Z,10.40
2022-10-31T22:56:21.554Z,10.30
2022-10-31T22:58:49.174Z,10.30
2022-10-31T23:01:18.685Z,10.10
2022-10-31T23:03:46.446Z,10.00
2022-10-31T23:06:16.335Z,10.00
2022-10-31T23:08:43.552Z,10.00
2022-10-31T23:11:19.213Z,10.00
2022-10-31T23:14:09.166Z,10.00
2022-10-31T23:17:05.473Z,10.10
2022-10-31T23:19:32.278Z,10.10
2022-10-31T23:22:04.452Z,10.10
2022-10-31T23:24:36.649Z,10.10
2022-10-31T23:27:10.488Z,10.00
2022-10-31T23:29:45.969Z,9.90
2022-10-31T23:32:22.682Z,9.90
2022-10-31T23:34:51.554Z,9.90
2022-10-31T23:37:20.052Z,9.90
2022-10-31T23:39:47.525Z,9.90
2022-10-31T23:42:15.481Z,9.90
2022-10-31T23:44:42.912Z,9.90
2022-10-31T23:47:09.639Z,10.00
2022-10-31T23:49:36.399Z,10.00
2022-10-31T23:52:04.230Z,10.00
2022-10-31T23:54:31.609Z,10.00
2022-10-31T23:56:58.305Z,10.10
2022-10-31T23:59:25.879Z,10.00
